sensor_id;sensor_type;location;lat;lon;timestamp;P1;durP1;ratioP1;P2;durP2;ratioP2
3911;SDS011;1971;51.778;10.330;2023-07-28T00:01:39;6.50;;;1.20;;
3911;SDS011;1971;51.778;10.330;2023-07-28T00:04:12;6.93;;;1.20;;
3911;SDS011;1971;51.778;10.330;2023-07-28T00:06:42;0.60;;;0.60;;
3911;SDS011;1971;51.778;10.330;2023-07-28T00:09:12;2.20;;;0.50;;
3911;SDS011;1971;51.778;10.330;2023-07-28T00:11:43;0.80;;;0.70;;
3911;SDS011;1971;51.778;10.330;2023-07-28T00:14:13;3.30;;;0.50;;
3911;SDS011;1971;51.778;10.330;2023-07-28T00:16:43;3.70;;;0.40;;
3911;SDS011;1971;51.778;10.330;2023-07-28T00:19:16;3.57;;;0.53;;
3911;SDS011;1971;51.778;10.330;2023-07-28T00:21:47;1.73;;;0.50;;
3911;SDS011;1971;51.778;10.330;2023-07-28T00:24:15;3.10;;;0.70;;
3911;SDS011;1971;51.778;10.330;2023-07-28T00:26:46;20.00;;;1.73;;
3911;SDS011;1971;51.778;10.330;2023-07-28T00:29:16;14.63;;;1.30;;
3911;SDS011;1971;51.778;10.330;2023-07-28T00:31:46;31.87;;;2.30;;
3911;SDS011;1971;51.778;10.330;2023-07-28T00:34:19;15.07;;;1.77;;
3911;SDS011;1971;51.778;10.330;2023-07-28T00:36:50;15.90;;;1.60;;
3911;SDS011;1971;51.778;10.330;2023-07-28T00:39:20;14.43;;;1.27;;
3911;SDS011;1971;51.778;10.330;2023-07-28T00:41:51;22.53;;;2.73;;
3911;SDS011;1971;51.778;10.330;2023-07-28T00:44:21;45.23;;;3.90;;
3911;SDS011;1971;51.778;10.330;2023-07-28T00:46:51;90.13;;;7.40;;
3911;SDS011;1971;51.778;10.330;2023-07-28T00:49:24;88.57;;;6.50;;
3911;SDS011;1971;51.778;10.330;2023-07-28T00:51:55;101.40;;;7.40;;
3911;SDS011;1971;51.778;10.330;2023-07-28T00:54:26;93.47;;;7.87;;
3911;SDS011;1971;51.778;10.330;2023-07-28T00:56:56;56.10;;;4.97;;
3911;SDS011;1971;51.778;10.330;2023-07-28T00:59:27;110.57;;;6.97;;
3911;SDS011;1971;51.778;10.330;2023-07-28T01:01:58;50.30;;;6.03;;
3911;SDS011;1971;51.778;10.330;2023-07-28T01:04:31;62.07;;;4.97;;
3911;SDS011;1971;51.778;10.330;2023-07-28T01:07:03;113.23;;;7.17;;
3911;SDS011;1971;51.778;10.330;2023-07-28T01:09:40;77.73;;;6.13;;
3911;SDS011;1971;51.778;10.330;2023-07-28T01:12:16;109.10;;;10.17;;
3911;SDS011;1971;51.778;10.330;2023-07-28T01:14:46;82.00;;;6.83;;
3911;SDS011;1971;51.778;10.330;2023-07-28T01:17:16;65.50;;;6.80;;
3911;SDS011;1971;51.778;10.330;2023-07-28T01:19:50;78.13;;;6.70;;
3911;SDS011;1971;51.778;10.330;2023-07-28T01:22:31;195.23;;;16.87;;
3911;SDS011;1971;51.778;10.330;2023-07-28T01:25:18;171.93;;;11.83;;
3911;SDS011;1971;51.778;10.330;2023-07-28T01:27:55;91.10;;;7.20;;
3911;SDS011;1971;51.778;10.330;2023-07-28T01:30:26;131.83;;;10.33;;
3911;SDS011;1971;51.778;10.330;2023-07-28T01:32:58;107.50;;;7.07;;
3911;SDS011;1971;51.778;10.330;2023-07-28T01:35:28;118.50;;;7.97;;
3911;SDS011;1971;51.778;10.330;2023-07-28T01:37:59;146.03;;;9.37;;
3911;SDS011;1971;51.778;10.330;2023-07-28T01:40:29;44.53;;;3.40;;
3911;SDS011;1971;51.778;10.330;2023-07-28T01:43:02;70.03;;;6.07;;
3911;SDS011;1971;51.778;10.330;2023-07-28T01:45:32;142.60;;;8.47;;
3911;SDS011;1971;51.778;10.330;2023-07-28T01:48:02;162.30;;;10.03;;
3911;SDS011;1971;51.778;10.330;2023-07-28T01:50:35;159.17;;;10.40;;
3911;SDS011;1971;51.778;10.330;2023-07-28T01:53:06;131.70;;;8.60;;
3911;SDS011;1971;51.778;10.330;2023-07-28T01:55:37;50.87;;;3.43;;
3911;SDS011;1971;51.778;10.330;2023-07-28T01:58:11;83.67;;;5.60;;
3911;SDS011;1971;51.778;10.330;2023-07-28T02:00:41;79.60;;;5.87;;
3911;SDS011;1971;51.778;10.330;2023-07-28T02:03:13;68.83;;;4.90;;
3911;SDS011;1971;51.778;10.330;2023-07-28T02:05:43;40.33;;;3.57;;
3911;SDS011;1971;51.778;10.330;2023-07-28T02:08:13;82.77;;;5.40;;
3911;SDS011;1971;51.778;10.330;2023-07-28T02:10:44;61.33;;;4.60;;
3911;SDS011;1971;51.778;10.330;2023-07-28T02:13:17;79.97;;;6.57;;
3911;SDS011;1971;51.778;10.330;2023-07-28T02:15:47;90.63;;;5.53;;
3911;SDS011;1971;51.778;10.330;2023-07-28T02:18:17;50.10;;;4.00;;
3911;SDS011;1971;51.778;10.330;2023-07-28T02:20:48;89.30;;;5.80;;
3911;SDS011;1971;51.778;10.330;2023-07-28T02:23:19;88.13;;;7.57;;
3911;SDS011;1971;51.778;10.330;2023-07-28T02:25:49;138.00;;;9.80;;
3911;SDS011;1971;51.778;10.330;2023-07-28T02:28:22;93.27;;;7.50;;
3911;SDS011;1971;51.778;10.330;2023-07-28T02:30:52;45.53;;;4.90;;
3911;SDS011;1971;51.778;10.330;2023-07-28T02:33:22;44.57;;;4.47;;
3911;SDS011;1971;51.778;10.330;2023-07-28T02:35:53;55.90;;;4.37;;
3911;SDS011;1971;51.778;10.330;2023-07-28T02:38:24;73.00;;;4.83;;
3911;SDS011;1971;51.778;10.330;2023-07-28T02:40:54;63.87;;;5.13;;
3911;SDS011;1971;51.778;10.330;2023-07-28T02:43:27;46.10;;;4.90;;
3911;SDS011;1971;51.778;10.330;2023-07-28T02:45:57;118.80;;;6.93;;
3911;SDS011;1971;51.778;10.330;2023-07-28T02:48:27;63.63;;;6.97;;
3911;SDS011;1971;51.778;10.330;2023-07-28T02:50:57;113.20;;;8.43;;
3911;SDS011;1971;51.778;10.330;2023-07-28T02:53:28;76.10;;;6.17;;
3911;SDS011;1971;51.778;10.330;2023-07-28T02:55:58;135.63;;;9.80;;
3911;SDS011;1971;51.778;10.330;2023-07-28T02:58:30;180.80;;;14.20;;
3911;SDS011;1971;51.778;10.330;2023-07-28T03:01:01;148.57;;;10.80;;
3911;SDS011;1971;51.778;10.330;2023-07-28T03:03:35;207.17;;;13.93;;
3911;SDS011;1971;51.778;10.330;2023-07-28T03:06:06;137.07;;;9.20;;
3911;SDS011;1971;51.778;10.330;2023-07-28T03:08:36;146.77;;;10.73;;
3911;SDS011;1971;51.778;10.330;2023-07-28T03:11:24;187.33;;;13.27;;
3911;SDS011;1971;51.778;10.330;2023-07-28T03:13:57;190.80;;;13.60;;
3911;SDS011;1971;51.778;10.330;2023-07-28T03:16:27;111.10;;;9.30;;
3911;SDS011;1971;51.778;10.330;2023-07-28T03:18:58;157.37;;;16.30;;
3911;SDS011;1971;51.778;10.330;2023-07-28T03:21:29;147.63;;;14.13;;
3911;SDS011;1971;51.778;10.330;2023-07-28T03:24:03;183.67;;;15.03;;
3911;SDS011;1971;51.778;10.330;2023-07-28T03:26:34;188.33;;;16.80;;
3911;SDS011;1971;51.778;10.330;2023-07-28T03:29:07;397.10;;;26.80;;
3911;SDS011;1971;51.778;10.330;2023-07-28T03:31:37;247.53;;;18.93;;
3911;SDS011;1971;51.778;10.330;2023-07-28T03:34:08;199.77;;;18.40;;
3911;SDS011;1971;51.778;10.330;2023-07-28T03:36:39;144.60;;;13.87;;
3911;SDS011;1971;51.778;10.330;2023-07-28T03:39:09;227.63;;;19.93;;
3911;SDS011;1971;51.778;10.330;2023-07-28T03:41:40;226.83;;;18.13;;
3911;SDS011;1971;51.778;10.330;2023-07-28T03:44:12;282.70;;;19.70;;
3911;SDS011;1971;51.778;10.330;2023-07-28T03:46:43;264.87;;;21.47;;
3911;SDS011;1971;51.778;10.330;2023-07-28T03:49:13;293.53;;;24.90;;
3911;SDS011;1971;51.778;10.330;2023-07-28T03:51:44;137.13;;;11.93;;
3911;SDS011;1971;51.778;10.330;2023-07-28T03:54:14;274.03;;;18.00;;
3911;SDS011;1971;51.778;10.330;2023-07-28T03:56:48;264.93;;;17.87;;
3911;SDS011;1971;51.778;10.330;2023-07-28T03:59:22;192.27;;;14.70;;
3911;SDS011;1971;51.778;10.330;2023-07-28T04:01:52;194.90;;;14.97;;
3911;SDS011;1971;51.778;10.330;2023-07-28T04:04:22;461.70;;;30.27;;
3911;SDS011;1971;51.778;10.330;2023-07-28T04:06:53;272.73;;;19.53;;
3911;SDS011;1971;51.778;10.330;2023-07-28T04:09:23;174.87;;;15.90;;
3911;SDS011;1971;51.778;10.330;2023-07-28T04:11:54;76.87;;;8.47;;
3911;SDS011;1971;51.778;10.330;2023-07-28T04:14:27;144.37;;;13.33;;
3911;SDS011;1971;51.778;10.330;2023-07-28T04:16:57;382.37;;;26.87;;
3911;SDS011;1971;51.778;10.330;2023-07-28T04:19:27;337.93;;;20.13;;
3911;SDS011;1971;51.778;10.330;2023-07-28T04:21:59;455.77;;;27.50;;
3911;SDS011;1971;51.778;10.330;2023-07-28T04:24:31;250.20;;;14.60;;
3911;SDS011;1971;51.778;10.330;2023-07-28T04:27:02;317.23;;;20.47;;
3911;SDS011;1971;51.778;10.330;2023-07-28T04:29:35;111.83;;;8.13;;
3911;SDS011;1971;51.778;10.330;2023-07-28T04:32:07;119.40;;;11.73;;
3911;SDS011;1971;51.778;10.330;2023-07-28T04:34:37;82.00;;;8.87;;
3911;SDS011;1971;51.778;10.330;2023-07-28T04:37:13;120.70;;;7.50;;
3911;SDS011;1971;51.778;10.330;2023-07-28T04:39:52;172.00;;;11.90;;
3911;SDS011;1971;51.778;10.330;2023-07-28T04:42:22;125.97;;;9.03;;
3911;SDS011;1971;51.778;10.330;2023-07-28T04:44:55;195.07;;;11.50;;
3911;SDS011;1971;51.778;10.330;2023-07-28T04:47:25;171.80;;;11.23;;
3911;SDS011;1971;51.778;10.330;2023-07-28T04:49:56;269.97;;;18.83;;
3911;SDS011;1971;51.778;10.330;2023-07-28T04:52:45;110.63;;;8.83;;
3911;SDS011;1971;51.778;10.330;2023-07-28T04:55:35;164.47;;;11.57;;
3911;SDS011;1971;51.778;10.330;2023-07-28T04:58:05;106.00;;;7.53;;
3911;SDS011;1971;51.778;10.330;2023-07-28T05:00:47;150.57;;;12.83;;
3911;SDS011;1971;51.778;10.330;2023-07-28T05:03:17;139.23;;;12.90;;
3911;SDS011;1971;51.778;10.330;2023-07-28T05:05:54;102.20;;;8.33;;
3911;SDS011;1971;51.778;10.330;2023-07-28T05:08:25;77.13;;;8.67;;
3911;SDS011;1971;51.778;10.330;2023-07-28T05:10:56;155.80;;;11.87;;
3911;SDS011;1971;51.778;10.330;2023-07-28T05:13:29;196.50;;;12.90;;
3911;SDS011;1971;51.778;10.330;2023-07-28T05:16:03;215.13;;;13.20;;
3911;SDS011;1971;51.778;10.330;2023-07-28T05:18:53;20.27;;;4.53;;
3911;SDS011;1971;51.778;10.330;2023-07-28T05:21:46;64.63;;;7.20;;
3911;SDS011;1971;51.778;10.330;2023-07-28T05:24:20;205.33;;;16.03;;
3911;SDS011;1971;51.778;10.330;2023-07-28T05:26:50;171.50;;;13.43;;
3911;SDS011;1971;51.778;10.330;2023-07-28T05:29:20;42.00;;;6.13;;
3911;SDS011;1971;51.778;10.330;2023-07-28T05:31:57;149.47;;;11.20;;
3911;SDS011;1971;51.778;10.330;2023-07-28T05:34:41;206.00;;;13.80;;
3911;SDS011;1971;51.778;10.330;2023-07-28T05:37:12;84.53;;;7.90;;
3911;SDS011;1971;51.778;10.330;2023-07-28T05:39:42;134.73;;;12.17;;
3911;SDS011;1971;51.778;10.330;2023-07-28T05:42:13;120.60;;;12.07;;
3911;SDS011;1971;51.778;10.330;2023-07-28T05:44:45;112.07;;;9.33;;
3911;SDS011;1971;51.778;10.330;2023-07-28T05:47:18;215.73;;;15.40;;
3911;SDS011;1971;51.778;10.330;2023-07-28T05:49:49;159.93;;;14.00;;
3911;SDS011;1971;51.778;10.330;2023-07-28T05:52:21;25.03;;;5.60;;
3911;SDS011;1971;51.778;10.330;2023-07-28T05:54:51;100.60;;;12.60;;
3911;SDS011;1971;51.778;10.330;2023-07-28T05:57:22;110.03;;;12.07;;
3911;SDS011;1971;51.778;10.330;2023-07-28T05:59:52;258.20;;;17.63;;
3911;SDS011;1971;51.778;10.330;2023-07-28T06:02:25;49.10;;;8.83;;
3911;SDS011;1971;51.778;10.330;2023-07-28T06:04:56;4.00;;;3.60;;
3911;SDS011;1971;51.778;10.330;2023-07-28T06:07:26;5.10;;;4.60;;
3911;SDS011;1971;51.778;10.330;2023-07-28T06:09:56;58.60;;;9.03;;
3911;SDS011;1971;51.778;10.330;2023-07-28T06:12:26;162.87;;;16.50;;
3911;SDS011;1971;51.778;10.330;2023-07-28T06:14:57;236.23;;;18.63;;
3911;SDS011;1971;51.778;10.330;2023-07-28T06:17:30;168.07;;;12.97;;
3911;SDS011;1971;51.778;10.330;2023-07-28T06:20:00;135.00;;;14.03;;
3911;SDS011;1971;51.778;10.330;2023-07-28T06:22:31;257.30;;;23.30;;
3911;SDS011;1971;51.778;10.330;2023-07-28T06:25:01;270.97;;;23.27;;
3911;SDS011;1971;51.778;10.330;2023-07-28T06:27:32;325.43;;;24.20;;
3911;SDS011;1971;51.778;10.330;2023-07-28T06:30:02;270.70;;;21.40;;
3911;SDS011;1971;51.778;10.330;2023-07-28T06:32:35;182.13;;;14.53;;
3911;SDS011;1971;51.778;10.330;2023-07-28T06:35:06;168.17;;;13.77;;
3911;SDS011;1971;51.778;10.330;2023-07-28T06:37:37;314.27;;;17.73;;
3911;SDS011;1971;51.778;10.330;2023-07-28T06:40:07;308.33;;;21.23;;
3911;SDS011;1971;51.778;10.330;2023-07-28T06:42:39;229.03;;;16.37;;
3911;SDS011;1971;51.778;10.330;2023-07-28T06:45:09;225.67;;;18.93;;
3911;SDS011;1971;51.778;10.330;2023-07-28T06:47:43;276.47;;;24.03;;
3911;SDS011;1971;51.778;10.330;2023-07-28T06:50:13;163.63;;;16.57;;
3911;SDS011;1971;51.778;10.330;2023-07-28T06:52:44;148.50;;;16.23;;
3911;SDS011;1971;51.778;10.330;2023-07-28T06:55:20;220.10;;;21.67;;
3911;SDS011;1971;51.778;10.330;2023-07-28T06:57:50;375.87;;;27.83;;
3911;SDS011;1971;51.778;10.330;2023-07-28T07:00:21;273.57;;;21.03;;
3911;SDS011;1971;51.778;10.330;2023-07-28T07:02:54;279.07;;;20.13;;
3911;SDS011;1971;51.778;10.330;2023-07-28T07:05:25;228.40;;;18.57;;
3911;SDS011;1971;51.778;10.330;2023-07-28T07:07:55;208.70;;;18.23;;
3911;SDS011;1971;51.778;10.330;2023-07-28T07:10:25;149.87;;;14.77;;
3911;SDS011;1971;51.778;10.330;2023-07-28T07:12:56;183.07;;;15.60;;
3911;SDS011;1971;51.778;10.330;2023-07-28T07:15:26;285.27;;;20.97;;
3911;SDS011;1971;51.778;10.330;2023-07-28T07:17:59;252.33;;;20.00;;
3911;SDS011;1971;51.778;10.330;2023-07-28T07:20:29;405.43;;;32.10;;
3911;SDS011;1971;51.778;10.330;2023-07-28T07:22:59;532.20;;;31.47;;
3911;SDS011;1971;51.778;10.330;2023-07-28T07:25:29;211.30;;;17.63;;
3911;SDS011;1971;51.778;10.330;2023-07-28T07:28:03;69.73;;;9.20;;
3911;SDS011;1971;51.778;10.330;2023-07-28T07:30:33;92.43;;;11.40;;
3911;SDS011;1971;51.778;10.330;2023-07-28T07:33:06;418.80;;;30.77;;
3911;SDS011;1971;51.778;10.330;2023-07-28T07:35:36;125.73;;;13.17;;
3911;SDS011;1971;51.778;10.330;2023-07-28T07:38:06;90.30;;;11.03;;
3911;SDS011;1971;51.778;10.330;2023-07-28T07:40:36;115.53;;;12.20;;
3911;SDS011;1971;51.778;10.330;2023-07-28T07:43:06;276.93;;;24.07;;
3911;SDS011;1971;51.778;10.330;2023-07-28T07:45:37;49.07;;;8.60;;
3911;SDS011;1971;51.778;10.330;2023-07-28T07:48:10;55.97;;;10.03;;
3911;SDS011;1971;51.778;10.330;2023-07-28T07:50:40;8.40;;;5.33;;
3911;SDS011;1971;51.778;10.330;2023-07-28T07:53:10;33.97;;;8.53;;
3911;SDS011;1971;51.778;10.330;2023-07-28T07:55:40;145.37;;;16.00;;
3911;SDS011;1971;51.778;10.330;2023-07-28T07:58:10;6.63;;;4.70;;
3911;SDS011;1971;51.778;10.330;2023-07-28T08:00:43;6.27;;;5.77;;
3911;SDS011;1971;51.778;10.330;2023-07-28T08:03:16;5.20;;;4.80;;
3911;SDS011;1971;51.778;10.330;2023-07-28T08:05:47;6.03;;;5.30;;
3911;SDS011;1971;51.778;10.330;2023-07-28T08:08:17;6.47;;;5.97;;
3911;SDS011;1971;51.778;10.330;2023-07-28T08:10:48;5.60;;;5.10;;
3911;SDS011;1971;51.778;10.330;2023-07-28T08:13:19;5.67;;;5.27;;
3911;SDS011;1971;51.778;10.330;2023-07-28T08:15:49;5.90;;;5.37;;
3911;SDS011;1971;51.778;10.330;2023-07-28T08:18:22;5.63;;;5.10;;
3911;SDS011;1971;51.778;10.330;2023-07-28T08:20:52;5.10;;;4.70;;
3911;SDS011;1971;51.778;10.330;2023-07-28T08:23:23;5.53;;;5.13;;
3911;SDS011;1971;51.778;10.330;2023-07-28T08:25:53;5.43;;;4.93;;
3911;SDS011;1971;51.778;10.330;2023-07-28T08:28:24;5.07;;;4.67;;
3911;SDS011;1971;51.778;10.330;2023-07-28T08:30:55;5.80;;;5.00;;
3911;SDS011;1971;51.778;10.330;2023-07-28T08:33:28;4.57;;;4.27;;
3911;SDS011;1971;51.778;10.330;2023-07-28T08:35:58;6.80;;;4.83;;
3911;SDS011;1971;51.778;10.330;2023-07-28T08:38:30;4.90;;;4.60;;
3911;SDS011;1971;51.778;10.330;2023-07-28T08:41:01;5.60;;;5.20;;
3911;SDS011;1971;51.778;10.330;2023-07-28T08:43:31;5.10;;;4.70;;
3911;SDS011;1971;51.778;10.330;2023-07-28T08:46:02;5.27;;;4.87;;
3911;SDS011;1971;51.778;10.330;2023-07-28T08:48:35;5.60;;;5.20;;
3911;SDS011;1971;51.778;10.330;2023-07-28T08:51:05;4.83;;;4.50;;
3911;SDS011;1971;51.778;10.330;2023-07-28T08:53:35;5.10;;;4.80;;
3911;SDS011;1971;51.778;10.330;2023-07-28T08:56:05;4.97;;;4.67;;
3911;SDS011;1971;51.778;10.330;2023-07-28T08:58:36;4.87;;;4.50;;
3911;SDS011;1971;51.778;10.330;2023-07-28T09:01:07;5.17;;;4.70;;
3911;SDS011;1971;51.778;10.330;2023-07-28T09:03:41;4.90;;;4.50;;
3911;SDS011;1971;51.778;10.330;2023-07-28T09:06:12;5.10;;;4.80;;
3911;SDS011;1971;51.778;10.330;2023-07-28T09:08:42;4.50;;;4.20;;
3911;SDS011;1971;51.778;10.330;2023-07-28T09:11:14;5.20;;;4.90;;
3911;SDS011;1971;51.778;10.330;2023-07-28T09:13:45;5.40;;;5.00;;
3911;SDS011;1971;51.778;10.330;2023-07-28T09:16:16;4.80;;;4.50;;
3911;SDS011;1971;51.778;10.330;2023-07-28T09:18:50;6.30;;;4.20;;
3911;SDS011;1971;51.778;10.330;2023-07-28T09:21:20;5.10;;;4.80;;
3911;SDS011;1971;51.778;10.330;2023-07-28T09:23:51;5.23;;;4.80;;
3911;SDS011;1971;51.778;10.330;2023-07-28T09:26:21;4.60;;;4.30;;
3911;SDS011;1971;51.778;10.330;2023-07-28T09:28:51;4.57;;;4.27;;
3911;SDS011;1971;51.778;10.330;2023-07-28T09:31:28;4.50;;;4.20;;
3911;SDS011;1971;51.778;10.330;2023-07-28T09:34:02;4.43;;;4.13;;
3911;SDS011;1971;51.778;10.330;2023-07-28T09:36:32;4.43;;;4.23;;
3911;SDS011;1971;51.778;10.330;2023-07-28T09:39:05;5.53;;;5.00;;
3911;SDS011;1971;51.778;10.330;2023-07-28T09:41:36;4.63;;;4.33;;
3911;SDS011;1971;51.778;10.330;2023-07-28T09:44:07;4.63;;;4.30;;
3911;SDS011;1971;51.778;10.330;2023-07-28T09:46:41;4.30;;;4.00;;
3911;SDS011;1971;51.778;10.330;2023-07-28T09:49:22;6.50;;;4.13;;
3911;SDS011;1971;51.778;10.330;2023-07-28T09:51:57;4.07;;;3.77;;
3911;SDS011;1971;51.778;10.330;2023-07-28T09:54:34;4.27;;;3.97;;
3911;SDS011;1971;51.778;10.330;2023-07-28T09:57:39;4.20;;;3.90;;
3911;SDS011;1971;51.778;10.330;2023-07-28T10:01:18;4.03;;;3.70;;
3911;SDS011;1971;51.778;10.330;2023-07-28T10:03:50;4.80;;;4.50;;
3911;SDS011;1971;51.778;10.330;2023-07-28T10:06:23;4.83;;;4.53;;
3911;SDS011;1971;51.778;10.330;2023-07-28T10:08:53;4.77;;;4.00;;
3911;SDS011;1971;51.778;10.330;2023-07-28T10:11:24;4.73;;;4.43;;
3911;SDS011;1971;51.778;10.330;2023-07-28T10:13:55;4.70;;;4.40;;
3911;SDS011;1971;51.778;10.330;2023-07-28T10:16:31;3.80;;;3.50;;
3911;SDS011;1971;51.778;10.330;2023-07-28T10:19:07;3.77;;;3.50;;
3911;SDS011;1971;51.778;10.330;2023-07-28T10:21:41;3.23;;;3.03;;
3911;SDS011;1971;51.778;10.330;2023-07-28T10:24:12;3.47;;;3.27;;
3911;SDS011;1971;51.778;10.330;2023-07-28T10:26:42;3.53;;;3.33;;
3911;SDS011;1971;51.778;10.330;2023-07-28T10:29:13;5.40;;;3.43;;
3911;SDS011;1971;51.778;10.330;2023-07-28T10:31:51;3.23;;;3.03;;
3911;SDS011;1971;51.778;10.330;2023-07-28T10:34:23;3.57;;;3.37;;
3911;SDS011;1971;51.778;10.330;2023-07-28T10:37:00;4.53;;;3.60;;
3911;SDS011;1971;51.778;10.330;2023-07-28T10:39:34;3.87;;;3.57;;
3911;SDS011;1971;51.778;10.330;2023-07-28T10:42:06;3.80;;;3.60;;
3911;SDS011;1971;51.778;10.330;2023-07-28T10:44:37;3.10;;;2.90;;
3911;SDS011;1971;51.778;10.330;2023-07-28T10:47:09;3.40;;;3.20;;
3911;SDS011;1971;51.778;10.330;2023-07-28T10:49:40;2.93;;;2.73;;
3911;SDS011;1971;51.778;10.330;2023-07-28T10:52:13;3.27;;;3.07;;
3911;SDS011;1971;51.778;10.330;2023-07-28T10:54:45;3.70;;;3.50;;
3911;SDS011;1971;51.778;10.330;2023-07-28T10:57:15;4.10;;;2.90;;
3911;SDS011;1971;51.778;10.330;2023-07-28T10:59:46;3.13;;;2.93;;
3911;SDS011;1971;51.778;10.330;2023-07-28T11:02:17;4.40;;;3.53;;
3911;SDS011;1971;51.778;10.330;2023-07-28T11:04:47;3.83;;;3.40;;
3911;SDS011;1971;51.778;10.330;2023-07-28T11:07:20;4.17;;;3.77;;
3911;SDS011;1971;51.778;10.330;2023-07-28T11:09:52;4.60;;;3.60;;
3911;SDS011;1971;51.778;10.330;2023-07-28T11:12:22;3.20;;;2.90;;
3911;SDS011;1971;51.778;10.330;2023-07-28T11:14:53;3.80;;;3.50;;
3911;SDS011;1971;51.778;10.330;2023-07-28T11:17:23;3.67;;;3.37;;
3911;SDS011;1971;51.778;10.330;2023-07-28T11:19:55;6.27;;;4.07;;
3911;SDS011;1971;51.778;10.330;2023-07-28T11:22:27;4.03;;;3.63;;
3911;SDS011;1971;51.778;10.330;2023-07-28T11:24:57;5.03;;;3.70;;
3911;SDS011;1971;51.778;10.330;2023-07-28T11:27:27;3.80;;;3.50;;
3911;SDS011;1971;51.778;10.330;2023-07-28T11:29:57;4.07;;;3.77;;
3911;SDS011;1971;51.778;10.330;2023-07-28T11:32:27;4.30;;;4.00;;
3911;SDS011;1971;51.778;10.330;2023-07-28T11:35:02;4.17;;;3.97;;
3911;SDS011;1971;51.778;10.330;2023-07-28T11:37:36;3.23;;;2.93;;
3911;SDS011;1971;51.778;10.330;2023-07-28T11:40:08;5.47;;;4.40;;
3911;SDS011;1971;51.778;10.330;2023-07-28T11:42:41;3.97;;;3.70;;
3911;SDS011;1971;51.778;10.330;2023-07-28T11:45:14;3.67;;;3.43;;
3911;SDS011;1971;51.778;10.330;2023-07-28T11:47:55;3.77;;;3.47;;
3911;SDS011;1971;51.778;10.330;2023-07-28T11:50:26;3.47;;;3.27;;
3911;SDS011;1971;51.778;10.330;2023-07-28T11:53:00;4.00;;;3.80;;
3911;SDS011;1971;51.778;10.330;2023-07-28T11:55:30;3.67;;;3.47;;
3911;SDS011;1971;51.778;10.330;2023-07-28T11:58:01;3.40;;;3.20;;
3911;SDS011;1971;51.778;10.330;2023-07-28T12:00:33;3.90;;;3.60;;
3911;SDS011;1971;51.778;10.330;2023-07-28T12:03:05;3.93;;;3.63;;
3911;SDS011;1971;51.778;10.330;2023-07-28T12:05:37;4.33;;;4.03;;
3911;SDS011;1971;51.778;10.330;2023-07-28T12:08:14;4.53;;;4.23;;
3911;SDS011;1971;51.778;10.330;2023-07-28T12:10:53;3.53;;;3.20;;
3911;SDS011;1971;51.778;10.330;2023-07-28T12:13:27;4.33;;;4.03;;
3911;SDS011;1971;51.778;10.330;2023-07-28T12:15:58;3.90;;;3.60;;
3911;SDS011;1971;51.778;10.330;2023-07-28T12:18:31;3.50;;;3.30;;
3911;SDS011;1971;51.778;10.330;2023-07-28T12:21:04;3.70;;;3.40;;
3911;SDS011;1971;51.778;10.330;2023-07-28T12:23:37;3.10;;;2.90;;
3911;SDS011;1971;51.778;10.330;2023-07-28T12:26:10;3.57;;;3.27;;
3911;SDS011;1971;51.778;10.330;2023-07-28T12:28:40;5.00;;;4.60;;
3911;SDS011;1971;51.778;10.330;2023-07-28T12:31:10;4.20;;;3.90;;
3911;SDS011;1971;51.778;10.330;2023-07-28T12:33:41;4.53;;;4.23;;
3911;SDS011;1971;51.778;10.330;2023-07-28T12:36:15;3.93;;;3.63;;
3911;SDS011;1971;51.778;10.330;2023-07-28T12:38:51;4.03;;;3.80;;
3911;SDS011;1971;51.778;10.330;2023-07-28T12:41:21;4.03;;;3.73;;
3911;SDS011;1971;51.778;10.330;2023-07-28T12:44:07;4.13;;;3.87;;
3911;SDS011;1971;51.778;10.330;2023-07-28T12:46:42;3.87;;;3.67;;
3911;SDS011;1971;51.778;10.330;2023-07-28T12:49:12;4.40;;;4.00;;
3911;SDS011;1971;51.778;10.330;2023-07-28T12:51:45;4.17;;;3.87;;
3911;SDS011;1971;51.778;10.330;2023-07-28T12:54:21;4.17;;;3.87;;
3911;SDS011;1971;51.778;10.330;2023-07-28T12:56:53;5.00;;;4.70;;
3911;SDS011;1971;51.778;10.330;2023-07-28T12:59:27;4.13;;;3.83;;
3911;SDS011;1971;51.778;10.330;2023-07-28T13:01:58;4.37;;;4.07;;
3911;SDS011;1971;51.778;10.330;2023-07-28T13:04:28;4.20;;;3.90;;
3911;SDS011;1971;51.778;10.330;2023-07-28T13:06:58;4.03;;;3.83;;
3911;SDS011;1971;51.778;10.330;2023-07-28T13:09:34;4.00;;;3.80;;
3911;SDS011;1971;51.778;10.330;2023-07-28T13:12:08;5.10;;;4.77;;
3911;SDS011;1971;51.778;10.330;2023-07-28T13:14:41;4.03;;;3.73;;
3911;SDS011;1971;51.778;10.330;2023-07-28T13:17:12;4.43;;;4.03;;
3911;SDS011;1971;51.778;10.330;2023-07-28T13:19:43;4.80;;;4.50;;
3911;SDS011;1971;51.778;10.330;2023-07-28T13:22:14;4.03;;;3.73;;
3911;SDS011;1971;51.778;10.330;2023-07-28T13:24:46;4.80;;;4.50;;
3911;SDS011;1971;51.778;10.330;2023-07-28T13:27:17;4.30;;;4.10;;
3911;SDS011;1971;51.778;10.330;2023-07-28T13:29:47;4.50;;;4.20;;
3911;SDS011;1971;51.778;10.330;2023-07-28T13:32:18;6.10;;;4.97;;
3911;SDS011;1971;51.778;10.330;2023-07-28T13:34:52;4.83;;;4.53;;
3911;SDS011;1971;51.778;10.330;2023-07-28T13:37:23;4.77;;;4.47;;
3911;SDS011;1971;51.778;10.330;2023-07-28T13:39:56;6.00;;;5.60;;
3911;SDS011;1971;51.778;10.330;2023-07-28T13:42:26;4.80;;;4.50;;
3911;SDS011;1971;51.778;10.330;2023-07-28T13:44:56;4.90;;;4.60;;
3911;SDS011;1971;51.778;10.330;2023-07-28T13:47:26;5.23;;;4.93;;
3911;SDS011;1971;51.778;10.330;2023-07-28T13:49:57;4.70;;;4.40;;
3911;SDS011;1971;51.778;10.330;2023-07-28T13:52:27;5.43;;;5.13;;
3911;SDS011;1971;51.778;10.330;2023-07-28T13:55:00;4.63;;;4.33;;
3911;SDS011;1971;51.778;10.330;2023-07-28T13:57:34;4.70;;;4.40;;
3911;SDS011;1971;51.778;10.330;2023-07-28T14:00:05;5.77;;;5.27;;
3911;SDS011;1971;51.778;10.330;2023-07-28T14:02:39;5.17;;;4.87;;
3911;SDS011;1971;51.778;10.330;2023-07-28T14:05:09;5.23;;;4.93;;
3911;SDS011;1971;51.778;10.330;2023-07-28T14:07:39;5.43;;;5.03;;
3911;SDS011;1971;51.778;10.330;2023-07-28T14:10:12;4.63;;;4.33;;
3911;SDS011;1971;51.778;10.330;2023-07-28T14:12:42;5.13;;;4.83;;
3911;SDS011;1971;51.778;10.330;2023-07-28T14:15:13;4.43;;;4.13;;
3911;SDS011;1971;51.778;10.330;2023-07-28T14:17:43;3.80;;;3.50;;
3911;SDS011;1971;51.778;10.330;2023-07-28T14:20:14;3.90;;;3.70;;
3911;SDS011;1971;51.778;10.330;2023-07-28T14:22:44;4.17;;;3.87;;
3911;SDS011;1971;51.778;10.330;2023-07-28T14:25:17;4.50;;;4.10;;
3911;SDS011;1971;51.778;10.330;2023-07-28T14:27:47;4.10;;;3.90;;
3911;SDS011;1971;51.778;10.330;2023-07-28T14:30:18;5.77;;;3.63;;
3911;SDS011;1971;51.778;10.330;2023-07-28T14:32:48;4.60;;;4.30;;
3911;SDS011;1971;51.778;10.330;2023-07-28T14:35:18;4.83;;;4.53;;
3911;SDS011;1971;51.778;10.330;2023-07-28T14:37:48;4.00;;;3.80;;
3911;SDS011;1971;51.778;10.330;2023-07-28T14:40:21;3.67;;;3.47;;
3911;SDS011;1971;51.778;10.330;2023-07-28T14:42:51;3.40;;;3.20;;
3911;SDS011;1971;51.778;10.330;2023-07-28T14:45:21;3.60;;;3.40;;
3911;SDS011;1971;51.778;10.330;2023-07-28T14:47:51;3.53;;;3.33;;
3911;SDS011;1971;51.778;10.330;2023-07-28T14:50:21;3.73;;;3.43;;
3911;SDS011;1971;51.778;10.330;2023-07-28T14:52:52;4.17;;;3.87;;
3911;SDS011;1971;51.778;10.330;2023-07-28T14:55:25;4.17;;;3.87;;
3911;SDS011;1971;51.778;10.330;2023-07-28T14:57:55;4.37;;;4.00;;
3911;SDS011;1971;51.778;10.330;2023-07-28T15:00:25;4.30;;;4.00;;
3911;SDS011;1971;51.778;10.330;2023-07-28T15:02:55;3.70;;;3.50;;
3911;SDS011;1971;51.778;10.330;2023-07-28T15:05:25;4.03;;;3.63;;
3911;SDS011;1971;51.778;10.330;2023-07-28T15:07:55;4.23;;;3.93;;
3911;SDS011;1971;51.778;10.330;2023-07-28T15:10:29;4.23;;;3.83;;
3911;SDS011;1971;51.778;10.330;2023-07-28T15:12:59;3.47;;;3.27;;
3911;SDS011;1971;51.778;10.330;2023-07-28T15:15:29;4.37;;;3.97;;